Sylvan Lake, Canada
Current Conditions -  °F | °C
As of 2:00 PM on Tuesday 25 Nov 2014 (Local Time) from CYQF Reporting Station
Snow Showers Snow Showers  
Wind Chill: -7°   Ceiling: 10000
Heat Index: -3°   Visibility: 8mi
Dew Point: -5°   Wind: 7mph
Humidity: 86%   Direction: 360°N
Pressure: 30.05"   Gusts: NA
Location:  52.31°N, 114.09°W
Report Text: CYQF 252100Z 36006KT 8SM -SHSN SCT016 BKN100 M03/M05 A3005 RMK SC4AC3 SLP223
Loading
Personal Weather Stations






























Interactive Weather Map New forecast layout! Learn more

10-Day Weather Forecast

Advertisements
Track Severe Weather on mobile